| time (UTC) | temp F | wind direction | speed MPH | gust MPH | rain 1hr in | rain 24hr in | rain mn in | humidity % | barometer mb |
| 20260506163021 | 48 | 0.0 | 3.0 | 0.03 | 0.15 | 0.15 | 92 | 1010.0 | |
| 20260506162040 | 48 | 90 | 2.0 | 5.0 | 0.02 | 0.14 | 0.14 | 91 | 1010.1 |
| 20260506161626 | 48 | 0.0 | 0.0 | 0.02 | 0.13 | 0.13 | 92 | 1010.1 | |
| 20260506160520 | 48 | 0.0 | 0.0 | 0.02 | 0.13 | 0.13 | 92 | 1010.1 | |
| 20260506155520 | 0 | 0.0 | 0.0 | 0.02 | 0.12 | 0.12 | |||
| 20260506154514 | 0 | 0.0 | 0.0 | 0.02 | 0.12 | 0.12 | |||
| 20260506154029 | 48 | 0.0 | 0.0 | 0.02 | 0.12 | 0.12 | 91 | 1010.2 | |
| 20260506153551 | 48 | 0.0 | 0.0 | 0.02 | 0.12 | 0.12 | 91 | 1010.1 | |
| 20260506153020 | 48 | 0.0 | 1.0 | 0.03 | 0.12 | 0.12 | 91 | 1010.3 | |
| 20260506152020 | 48 | 0.0 | 3.0 | 0.03 | 0.12 | 0.12 | 91 | 1010.3 | |
| 20260506151022 | 48 | 0.0 | 4.0 | 0.04 | 0.11 | 0.11 | 91 | 1010.3 | |
| 20260506150020 | 48 | 0.0 | 3.0 | 0.05 | 0.11 | 0.11 | 91 | 1010.2 | |
| 20260506145019 | 48 | 0.0 | 0.0 | 0.05 | 0.10 | 0.10 | 91 | 1010.2 | |
| 20260506144040 | 48 | 0.0 | 0.0 | 0.04 | 0.09 | 0.09 | 91 | 1010.1 | |
| 20260506143020 | 48 | 0.0 | 0.0 | 0.05 | 0.09 | 0.09 | 90 | 1010.1 | |
| 20260506142020 | 49 | 0.0 | 0.0 | 0.05 | 0.09 | 0.09 | 90 | 1010.2 | |
| 20260506141515 | 49 | 0.0 | 2.0 | 0.05 | 0.07 | 0.07 | 90 | 1010.1 | |
| 20260506140527 | 49 | 0.0 | 3.0 | 0.05 | 0.07 | 0.07 | 90 | 1010.1 | |
| 20260506140029 | 50 | 0.0 | 1.0 | 0.04 | 0.06 | 0.06 | 90 | 1010.1 | |
| 20260506135608 | 50 | 0.0 | 0.0 | 0.03 | 0.06 | 0.06 | 90 | 1010.1 | |
| 20260506135020 | 50 | 0.0 | 0.0 | 0.03 | 0.06 | 0.06 | 90 | ||
| 20260506134020 | 50 | 0.0 | 0.0 | 0.03 | 0.06 | 0.06 | 89 | ||
| 20260506133028 | 50 | 0.0 | 0.0 | 0.02 | 0.04 | 0.04 | 88 | ||
| 20260506132508 | 50 | 0.0 | 0.0 | 0.02 | 0.04 | 0.04 | 88 | 1010.0 | |
| 20260506132021 | 50 | 68 | 1.0 | 5.0 | 0.02 | 0.04 | 0.04 | 88 | 1010.0 |
| 20260506131039 | 0 | 0.0 | 0.0 | 0.00 | 0.02 | 0.02 | |||
| 20260506130020 | 0 | 0.0 | 0.0 | 0.00 | 0.02 | 0.02 | |||
| 20260506125519 | 0 | 0.0 | 0.0 | 0.00 | 0.02 | 0.02 | |||
| 20260506124559 | 0 | 0.0 | 0.0 | 0.02 | 0.02 | 0.02 | |||
| 20260506124012 | 51 | 0.0 | 0.0 | 0.02 | 0.02 | 0.02 | 88 | 1010.0 | |
| 20260506123524 | 51 | 0.0 | 0.0 | 0.02 | 0.02 | 0.02 | 88 | 1009.9 | |
| 20260506123019 | 51 | 0.0 | 0.0 | 0.02 | 0.02 | 0.02 | 88 | 1009.9 | |
| 20260506122100 | 51 | 0.0 | 0.0 | 0.02 | 0.02 | 0.02 | 88 | 1009.9 | |
| 20260506121019 | 51 | 0.0 | 1.0 | 0.02 | 0.02 | 0.02 | 88 | 1009.7 | |
| 20260506120020 | 50 | 0.0 | 2.0 | 0.02 | 0.02 | 0.02 | 87 | 1009.8 | |
| 20260506115019 | 50 | 0.0 | 0.0 | 0.02 | 0.02 | 0.02 | 86 | 1009.7 | |
| 20260506114557 | 50 | 68 | 1.0 | 3.0 | 0.01 | 0.01 | 0.01 | 86 | 1009.6 |
| 20260506114119 | 50 | 0.0 | 0.0 | 0.01 | 0.01 | 0.01 | 84 | 1009.7 | |
| 20260506113500 | 50 | 0.0 | 0.0 | 0.01 | 0.01 | 0.01 | 84 | 1009.6 | |
| 20260506113039 | 50 | 0.0 | 0.0 | 0.01 | 0.01 | 0.01 | 84 | 1009.7 | |
| 20260506112019 | 50 | 0.0 | 0.0 | 0.01 | 0.01 | 0.01 | 81 | 1009.6 | |
| 20260506111019 | 50 | 68 | 1.0 | 4.0 | 0.01 | 0.01 | 0.01 | 79 | 1009.5 |
| 20260506110020 | 50 | 0.0 | 4.0 | 0.00 | 0.00 | 0.00 | 79 | 1009.5 | |
| 20260506105019 | 50 | 0.0 | 3.0 | 0.00 | 0.00 | 0.00 | 79 | 1009.6 | |
| 20260506104020 | 50 | 0.0 | 1.0 | 0.00 | 0.00 | 0.00 | 79 | 1009.6 | |
| 20260506103019 | 50 | 68 | 1.0 | 5.0 | 0.00 | 0.00 | 0.00 | 79 | 1009.4 |
| 20260506102553 | 49 | 0.0 | 0.0 | 0.00 | 0.00 | 0.00 | 80 | 1009.5 | |
| 20260506102107 | 49 | 0.0 | 0.0 | 0.00 | 0.00 | 0.00 | 80 | 1009.5 | |
| 20260506101622 | 49 | 0.0 | 2.0 | 0.00 | 0.00 | 0.00 | 80 | 1009.5 | |
| 20260506100519 | 49 | 0.0 | 4.0 | 0.00 | 0.00 | 0.00 | 80 | 1009.5 | |
| 20260506095519 | 49 | 0.0 | 4.0 | 0.00 | 0.00 | 0.00 | 79 | 1009.5 | |
| 20260506094519 | 49 | 90 | 1.0 | 5.0 | 0.00 | 0.00 | 0.00 | 79 | |
| 20260506093520 | 50 | 68 | 1.0 | 6.0 | 0.00 | 0.00 | 0.00 | 79 | |
| 20260506092519 | 50 | 68 | 3.0 | 13.0 | 0.00 | 0.00 | 0.00 | 78 | |
| 20260506091519 | 50 | 68 | 1.0 | 7.0 | 0.00 | 0.00 | 0.00 | 77 | |
| 20260506090518 | 50 | 68 | 2.0 | 9.0 | 0.00 | 0.00 | 0.00 | 76 | |
| 20260506085520 | 50 | 45 | 1.0 | 11.0 | 0.00 | 0.00 | 0.00 | 77 | |
| 20260506084518 | 50 | 68 | 2.0 | 9.0 | 0.00 | 0.00 | 0.00 | 75 | |
| 20260506083539 | 50 | 90 | 1.0 | 8.0 | 0.00 | 0.00 | 0.00 | 74 | |
| 20260506082612 | 49 | 0.0 | 4.0 | 0.00 | 0.00 | 0.00 | 75 | ||
| 20260506081518 | 49 | 68 | 4.0 | 12.0 | 0.00 | 0.00 | 0.00 | 74 | |
| 20260506080518 | 49 | 68 | 1.0 | 6.0 | 0.00 | 0.00 | 0.00 | 75 | |
| 20260506073520 | 49 | 90 | 2.0 | 10.0 | 0.00 | 0.00 | 0.00 | 76 | |
| 20260506072539 | 49 | 68 | 8.0 | 8.0 | 0.00 | 0.00 | 0.00 | 76 | |
| 20260506071503 | 49 | 0.0 | 0.0 | 0.00 | 0.00 | 0.00 | 78 | ||
| 20260506070625 | 49 | 0.0 | 0.0 | 0.00 | 0.00 | 0.00 | 77 | ||
| 20260506062013 | 49 | 0.0 | 0.0 | 0.00 | 0.00 | 0.00 | 78 | ||
| 20260506061040 | 49 | 68 | 2.0 | 8.0 | 0.00 | 0.00 | 0.00 | 78 | |
| 20260506051020 | 0 | 0.0 | 0.0 | 0.00 | 0.00 | 0.00 | |||
| 20260506044520 | 0 | 0.0 | 0.0 | 0.00 | 0.00 | 0.00 | |||
| 20260506043541 | 0 | 0.0 | 0.0 | 0.00 | 0.00 | 0.00 | |||
| 20260506042524 | 0 | 0.0 | 0.0 | 0.00 | 0.00 | 0.00 | |||
| 20260506042043 | 49 | 0.0 | 0.0 | 0.00 | 0.00 | 0.00 | 75 | ||
| 20260506041631 | 49 | 0.0 | 0.0 | 0.00 | 0.00 | 0.00 | 75 | ||
| 20260506040521 | 49 | 0.0 | 0.0 | 0.00 | 0.00 | 0.00 | 74 | ||
| 20260506040019 | 49 | 0.0 | 2.0 | 0.00 | 0.01 | 0.00 | 74 | ||
| 20260506035501 | 49 | 0.0 | 3.0 | 0.00 | 0.01 | 0.00 | 74 | ||
| 20260506034519 | 49 | 68 | 1.0 | 5.0 | 0.00 | 0.02 | 0.00 | 74 | |
| 20260506033520 | 49 | 0.0 | 0.0 | 0.00 | 0.02 | 0.00 | 75 | ||
| 20260506032600 | 49 | 0.0 | 0.0 | 0.00 | 0.02 | 0.00 | 75 | ||
| 20260506032004 | 49 | 68 | 2.0 | 7.0 | 0.00 | 0.02 | 0.00 | 76 | |
| 20260506031020 | 49 | 0.0 | 0.0 | 0.00 | 0.03 | 0.00 | 77 | ||
| 20260506030103 | 50 | 0.0 | 0.0 | 0.00 | 0.06 | 0.00 | 78 | ||
| 20260506025459 | 50 | 0.0 | 0.0 | 0.00 | 0.06 | 0.00 | 78 | ||
| 20260506024521 | 50 | 68 | 1.0 | 3.0 | 0.00 | 0.06 | 0.00 | 78 | |
| 20260506024019 | 50 | 0.0 | 4.0 | 0.00 | 0.06 | 0.00 | 78 | ||
| 20260506023520 | 50 | 68 | 1.0 | 4.0 | 0.00 | 0.06 | 0.00 | 79 | |
| 20260506022520 | 50 | 45 | 1.0 | 6.0 | 0.00 | 0.07 | 0.00 | 79 | |
| 20260506021520 | 50 | 0.0 | 4.0 | 0.00 | 0.08 | 0.00 | 79 | ||
| 20260506020520 | 50 | 0.0 | 4.0 | 0.00 | 0.09 | 0.00 | 79 | ||
| 20260506015524 | 50 | 68 | 2.0 | 9.0 | 0.00 | 0.09 | 0.00 | 79 | |
| 20260506014519 | 50 | 0.0 | 0.0 | 0.00 | 0.09 | 0.00 | 80 | ||
| 20260506014019 | 0 | 0.0 | 0.0 | 0.00 | 0.09 | 0.00 | |||
| 20260506013019 | 0 | 0.0 | 0.0 | 0.00 | 0.10 | 0.00 | |||
| 20260506012549 | 50 | 0.0 | 0.0 | 0.00 | 0.10 | 0.00 | 80 | ||
| 20260506012107 | 50 | 68 | 1.0 | 7.0 | 0.00 | 0.10 | 0.00 | 80 | |
| 20260506011019 | 50 | 68 | 1.0 | 6.0 | 0.00 | 0.10 | 0.00 | 80 | |
| 20260506010019 | 51 | 68 | 1.0 | 5.0 | 0.00 | 0.10 | 0.00 | 81 | |
| 20260506005039 | 51 | 68 | 1.0 | 3.0 | 0.00 | 0.10 | 0.00 | 81 | |
| 20260506004019 | 51 | 0.0 | 0.0 | 0.00 | 0.10 | 0.00 | 82 | ||
| 20260506003019 | 51 | 0.0 | 0.0 | 0.00 | 0.11 | 0.00 | 82 | ||
| 20260506002519 | 51 | 0.0 | 0.0 | 0.00 | 0.11 | 0.00 | 81 | ||
| 20260506001519 | 51 | 68 | 2.0 | 7.0 | 0.00 | 0.11 | 0.00 | 81 | |
| 20260506000520 | 51 | 68 | 1.0 | 5.0 | 0.00 | 0.11 | 0.00 | 81 | |
| 20260505235519 | 51 | 68 | 1.0 | 5.0 | 0.00 | 0.11 | 0.00 | 81 | |
| 20260505234519 | 51 | 0.0 | 6.0 | 0.00 | 0.11 | 0.00 | 81 | ||
| 20260505233519 | 51 | 0.0 | 1.0 | 0.00 | 0.12 | 0.00 | 81 | ||
| 20260505232521 | 52 | 68 | 1.0 | 5.0 | 0.00 | 0.12 | 0.00 | 81 | |
| 20260505231609 | 52 | 0.0 | 2.0 | 0.00 | 0.12 | 0.00 | 80 | ||
| 20260505230518 | 52 | 0.0 | 3.0 | 0.00 | 0.16 | 0.00 | 80 | ||
| 20260505225539 | 52 | 0.0 | 0.0 | 0.00 | 0.16 | 0.00 | 80 | ||
| 20260505225047 | 52 | 0.0 | 0.0 | 0.00 | 0.16 | 0.00 | 80 | ||
| 20260505224019 | 52 | 0.0 | 0.0 | 0.00 | 0.16 | 0.00 | 80 | ||
| 20260505223532 | 52 | 0.0 | 0.0 | 0.00 | 0.16 | 0.00 | 81 | ||
| 20260505223027 | 52 | 0.0 | 2.0 | 0.00 | 0.16 | 0.00 | 81 | ||
| 20260505222014 | 52 | 68 | 1.0 | 1.0 | 0.00 | 0.16 | 0.00 | 82 | |
| 20260505221459 | 52 | 0.0 | 0.0 | 0.00 | 0.16 | 0.00 | 82 | ||
| 20260505221041 | 52 | 0.0 | 1.0 | 0.00 | 0.16 | 0.00 | 83 | ||
| 20260505220019 | 52 | 0.0 | 3.0 | 0.00 | 0.16 | 0.16 | 84 | ||
| 20260505215507 | 52 | 0.0 | 0.0 | 0.00 | 0.16 | 0.16 | 86 | ||
| 20260505215037 | 52 | 0.0 | 0.0 | 0.00 | 0.16 | 0.16 | 86 | ||
| 20260505214556 | 53 | 0.0 | 0.0 | 0.00 | 0.16 | 0.16 | 87 | ||
| 20260505214039 | 53 | 0.0 | 0.0 | 0.00 | 0.16 | 0.16 | 87 | ||
| 20260505212211 | 0 | 0.0 | 0.0 | 0.00 | 0.16 | 0.16 | |||
| 20260505211600 | 0 | 0.0 | 0.0 | 0.00 | 0.16 | 0.16 | |||
| 20260505210613 | 0 | 0.0 | 0.0 | 0.00 | 0.16 | 0.16 | |||
| 20260505210019 | 0 | 0.0 | 0.0 | 0.00 | 0.16 | 0.16 | |||
| 20260505205018 | 0 | 0.0 | 0.0 | 0.00 | 0.16 | 0.16 | |||
| 20260505204519 | 0 | 0.0 | 0.0 | 0.00 | 0.16 | 0.16 | |||
| 20260505203518 | 0 | 0.0 | 0.0 | 0.00 | 0.16 | 0.16 | |||
| 20260505203037 | 0 | 0.0 | 0.0 | 0.00 | 0.16 | 0.16 | |||
| 20260505202519 | 0 | 0.0 | 0.0 | 0.00 | 0.16 | 0.16 | |||
| 20260505201544 | 0 | 0.0 | 0.0 | 0.00 | 0.16 | 0.16 | |||
| 20260505201019 | 0 | 0.0 | 0.0 | 0.00 | 0.16 | 0.16 | |||
| 20260505200019 | 0 | 0.0 | 0.0 | 0.00 | 0.16 | 0.16 | |||
| 20260505195027 | 0 | 0.0 | 0.0 | 0.00 | 0.16 | 0.16 | |||
| 20260505194018 | 0 | 0.0 | 0.0 | 0.00 | 0.16 | 0.16 | |||
| 20260505193519 | 0 | 0.0 | 0.0 | 0.00 | 0.16 | 0.16 | |||
| 20260505192518 | 0 | 0.0 | 0.0 | 0.00 | 0.16 | 0.16 | |||
| 20260505191542 | 0 | 0.0 | 0.0 | 0.00 | 0.16 | 0.16 | |||
| 20260505190531 | 0 | 0.0 | 0.0 | 0.00 | 0.16 | 0.16 | |||
| 20260505190019 | 0 | 0.0 | 0.0 | 0.00 | 0.16 | 0.16 | |||
| 20260505185033 | 0 | 0.0 | 0.0 | 0.00 | 0.16 | 0.16 | |||
| 20260505184539 | 0 | 0.0 | 0.0 | 0.00 | 0.16 | 0.16 | |||
| 20260505183519 | 0 | 0.0 | 0.0 | 0.00 | 0.16 | 0.16 | |||
| 20260505182518 | 0 | 0.0 | 0.0 | 0.00 | 0.16 | 0.16 | |||
| 20260505181519 | 0 | 0.0 | 0.0 | 0.00 | 0.16 | 0.16 | |||
| 20260505181018 | 0 | 0.0 | 0.0 | 0.00 | 0.16 | 0.16 | |||
| 20260505180021 | 0 | 0.0 | 0.0 | 0.00 | 0.16 | 0.16 | |||
| 20260505175518 | 55 | 0.0 | 0.0 | 0.00 | 0.16 | 0.16 | 85 | ||
| 20260505175039 | 55 | 0.0 | 0.0 | 0.00 | 0.16 | 0.16 | 85 | ||
| 20260505174540 | 55 | 0.0 | 0.0 | 0.00 | 0.16 | 0.16 | 85 | ||
| 20260505173521 | 55 | 68 | 1.0 | 5.0 | 0.00 | 0.16 | 0.16 | 85 | |
| 20260505172518 | 55 | 68 | 1.0 | 5.0 | 0.00 | 0.16 | 0.16 | 85 | 1010.5 |
| 20260505171521 | 55 | 0.0 | 0.0 | 0.00 | 0.16 | 0.16 | 86 | 1010.4 | |
| 20260505170521 | 55 | 0.0 | 0.0 | 0.00 | 0.16 | 0.16 | 86 | 1010.4 | |
| 20260505165520 | 55 | 0.0 | 1.0 | 0.00 | 0.16 | 0.16 | 86 | 1010.4 | |
| 20260505164518 | 55 | 0.0 | 0.0 | 0.00 | 0.16 | 0.16 | 85 | 1010.4 | |
| 20260505163520 | 55 | 90 | 1.0 | 3.0 | 0.00 | 0.16 | 0.16 | 85 | 1010.4 |